Puerto Banus, Marbella

>

This is an optional block (switch it off / on) in the settings - file ($SITE['banners'] = false;)

You can display ads, any other important text or photo’s using text / html or PHP code.

You can place one or more at the top and or bottom and it can all be different for content / size .



Meteosat more information blitzortung!


Radar lluvias  rain snow radar


Visita nuestra red de sitios de meteo:

Documentation for the template used

MeteoibericaRed estaciones Meteorologicas

MeteoclimaticRed estaciones Meteorologicas



Sin Advertencias climatologicas .En este momento tenemos Nivel Verde.    No hay Alarmas

Pagina Historial Weather Underground texto

Diario Resumen Diciembre 28, 2017 Unidades:  Métrico    impérial   Tanto
« Anterior Dia
Siguiente Dia »
Diario Semana Mensual Anual Personalizada
  Maxima: Minima: Media:
Temperatura: 19.3 °C 14.4 °C 16.6 °C
Punto de rocío: 14.1 °C 9.1 °C 12.7 °C
Humedad: 89 % 64 % 78 %
Velocidad del Viento: 44.4 km/h 0.0 km/h 22.8 km/h
Ráfagas de viento: 44.4 km/h - -
Viento:- - West
Pression baro: 1020.2 hPa 1016.5 hPa -
Précipitaciones: 0.0 mm    
Historical Graphs
 
 
Datos de tabla para Diciembre 28, 2017
Tiempo Temperatura Punto de rocío Pression baro Viento Velocidad del Viento Ráfagas de viento Humedad Las precipitaciones Rate ( Hora )
00:00 15.9 °C 9.1 °C 1018.2 hPa WNW 22.5 km/h 22.5 km/h 64 % 0.0 mm
00:04 15.7 °C 9.2 °C 1018.2 hPa West 18.5 km/h 18.5 km/h 65 % 0.0 mm
00:06 15.7 °C 9.3 °C 1018.2 hPa West 14.5 km/h 14.5 km/h 66 % 0.0 mm
00:11 15.6 °C 9.4 °C 1018.2 hPa West 20.4 km/h 20.4 km/h 67 % 0.0 mm
00:13 15.5 °C 9.4 °C 1018.2 hPa WNW 13.0 km/h 13.0 km/h 67 % 0.0 mm
00:16 15.4 °C 9.5 °C 1018.2 hPa West 20.4 km/h 20.4 km/h 68 % 0.0 mm
00:21 15.3 °C 9.4 °C 1018.2 hPa WNW 14.8 km/h 14.8 km/h 68 % 0.0 mm
00:22 15.3 °C 9.4 °C 1018.2 hPa West 14.8 km/h 14.8 km/h 68 % 0.0 mm
00:27 15.3 °C 9.6 °C 1018.2 hPa WNW 20.4 km/h 20.4 km/h 69 % 0.0 mm
00:28 15.3 °C 9.6 °C 1018.2 hPa West 20.4 km/h 20.4 km/h 69 % 0.0 mm
00:30 15.3 °C 9.6 °C 1018.2 hPa West 14.8 km/h 14.8 km/h 69 % 0.0 mm
00:34 15.2 °C 9.6 °C 1018.2 hPa WNW 14.8 km/h 14.8 km/h 69 % 0.0 mm
00:39 15.2 °C 9.5 °C 1018.2 hPa West 18.5 km/h 18.5 km/h 69 % 0.0 mm
00:44 15.2 °C 9.7 °C 1018.2 hPa West 18.5 km/h 18.5 km/h 70 % 0.0 mm
00:48 15.2 °C 9.8 °C 1018.2 hPa WNW 18.5 km/h 18.5 km/h 70 % 0.0 mm
00:51 15.2 °C 9.8 °C 1018.2 hPa West 22.2 km/h 22.2 km/h 70 % 0.0 mm
00:55 15.2 °C 9.8 °C 1018.2 hPa West 18.5 km/h 18.5 km/h 70 % 0.0 mm
00:56 15.2 °C 9.8 °C 1018.2 hPa West 19.3 km/h 19.3 km/h 70 % 0.0 mm
01:01 15.2 °C 9.7 °C 1017.8 hPa West 16.7 km/h 16.7 km/h 70 % 0.0 mm
01:02 15.2 °C 9.7 °C 1017.8 hPa WNW 16.7 km/h 16.7 km/h 70 % 0.0 mm
01:07 15.1 °C 9.9 °C 1017.8 hPa West 22.2 km/h 22.2 km/h 71 % 0.0 mm
01:12 15.1 °C 9.9 °C 1018.2 hPa WNW 25.7 km/h 25.7 km/h 71 % 0.0 mm
01:15 15.1 °C 9.9 °C 1018.2 hPa West 14.8 km/h 14.8 km/h 71 % 0.0 mm
01:17 15.1 °C 9.9 °C 1018.2 hPa West 13.0 km/h 13.0 km/h 71 % 0.0 mm
01:20 15.1 °C 9.8 °C 1018.2 hPa WNW 27.8 km/h 27.8 km/h 71 % 0.0 mm
01:23 15.1 °C 9.8 °C 1018.2 hPa WNW 18.5 km/h 18.5 km/h 71 % 0.0 mm
01:28 15.1 °C 10.1 °C 1017.8 hPa West 19.3 km/h 19.3 km/h 72 % 0.0 mm
01:29 15.0 °C 10.0 °C 1017.8 hPa West 19.3 km/h 19.3 km/h 72 % 0.0 mm
01:31 15.0 °C 10.0 °C 1017.8 hPa WNW 22.2 km/h 22.2 km/h 72 % 0.0 mm
01:34 15.0 °C 10.0 °C 1017.8 hPa WNW 22.2 km/h 22.2 km/h 72 % 0.0 mm
01:39 14.9 °C 9.9 °C 1017.8 hPa WNW 13.0 km/h 13.0 km/h 72 % 0.0 mm
01:40 14.9 °C 9.9 °C 1017.8 hPa NW 13.0 km/h 13.0 km/h 72 % 0.0 mm
01:43 14.9 °C 9.9 °C 1017.8 hPa West 14.8 km/h 14.8 km/h 72 % 0.0 mm
01:45 14.8 °C 9.8 °C 1017.8 hPa West 16.7 km/h 16.7 km/h 72 % 0.0 mm
01:50 14.8 °C 9.8 °C 1017.8 hPa West 27.8 km/h 27.8 km/h 72 % 0.0 mm
01:52 14.8 °C 9.8 °C 1017.5 hPa WSW 22.2 km/h 22.2 km/h 72 % 0.0 mm
01:57 14.8 °C 9.8 °C 1017.8 hPa WNW 18.5 km/h 18.5 km/h 72 % 0.0 mm
02:02 14.7 °C 9.7 °C 1017.5 hPa West 29.6 km/h 29.6 km/h 72 % 0.0 mm
02:03 14.7 °C 9.7 °C 1017.5 hPa West 25.9 km/h 25.9 km/h 72 % 0.0 mm
02:06 14.7 °C 9.7 °C 1017.8 hPa West 29.6 km/h 29.6 km/h 72 % 0.0 mm
02:08 14.8 °C 9.8 °C 1017.8 hPa WNW 31.5 km/h 31.5 km/h 72 % 0.0 mm
02:12 14.8 °C 9.8 °C 1017.8 hPa WNW 14.8 km/h 14.8 km/h 72 % 0.0 mm
02:13 14.8 °C 9.8 °C 1017.8 hPa West 13.0 km/h 13.0 km/h 72 % 0.0 mm
02:18 14.7 °C 9.7 °C 1017.8 hPa West 14.5 km/h 14.5 km/h 72 % 0.0 mm
02:19 14.7 °C 9.7 °C 1017.8 hPa WNW 16.1 km/h 16.1 km/h 72 % 0.0 mm
02:24 14.7 °C 9.7 °C 1017.8 hPa West 16.7 km/h 16.7 km/h 72 % 0.0 mm
02:28 14.7 °C 9.7 °C 1017.8 hPa West 24.1 km/h 24.1 km/h 72 % 0.0 mm
02:30 14.7 °C 9.9 °C 1017.8 hPa West 18.5 km/h 18.5 km/h 73 % 0.0 mm
02:34 14.7 °C 9.7 °C 1017.8 hPa West 24.1 km/h 24.1 km/h 72 % 0.0 mm
02:38 14.7 °C 9.9 °C 1017.8 hPa WNW 22.2 km/h 22.2 km/h 73 % 0.0 mm
02:40 14.7 °C 9.9 °C 1017.8 hPa WNW 20.9 km/h 20.9 km/h 73 % 0.0 mm
02:43 14.7 °C 9.9 °C 1017.5 hPa West 24.1 km/h 24.1 km/h 73 % 0.0 mm
02:48 14.7 °C 9.9 °C 1017.8 hPa West 13.0 km/h 13.0 km/h 73 % 0.0 mm
02:49 14.7 °C 9.7 °C 1017.8 hPa West 13.0 km/h 13.0 km/h 72 % 0.0 mm
02:52 14.7 °C 9.7 °C 1017.8 hPa West 11.1 km/h 11.1 km/h 72 % 0.0 mm
02:54 14.7 °C 9.9 °C 1017.8 hPa WSW 12.9 km/h 12.9 km/h 73 % 0.0 mm
02:58 14.6 °C 9.8 °C 1017.8 hPa West 13.0 km/h 13.0 km/h 73 % 0.0 mm
02:59 14.6 °C 9.8 °C 1017.8 hPa West 13.0 km/h 13.0 km/h 73 % 0.0 mm
03:04 14.6 °C 9.8 °C 1017.8 hPa West 16.7 km/h 16.7 km/h 73 % 0.0 mm
03:07 14.6 °C 9.8 °C 1017.8 hPa West 20.4 km/h 20.4 km/h 73 % 0.0 mm
03:09 14.6 °C 9.8 °C 1017.8 hPa West 18.5 km/h 18.5 km/h 73 % 0.0 mm
03:14 14.6 °C 9.8 °C 1017.8 hPa WSW 13.0 km/h 13.0 km/h 73 % 0.0 mm
03:15 14.6 °C 9.8 °C 1017.8 hPa West 18.5 km/h 18.5 km/h 73 % 0.0 mm
03:20 14.6 °C 10.0 °C 1017.5 hPa West 16.1 km/h 16.1 km/h 74 % 0.0 mm
03:21 14.6 °C 10.0 °C 1017.5 hPa West 13.0 km/h 13.0 km/h 74 % 0.0 mm
03:26 14.6 °C 10.0 °C 1017.5 hPa West 18.5 km/h 18.5 km/h 74 % 0.0 mm
03:31 14.6 °C 10.0 °C 1017.5 hPa West 18.5 km/h 18.5 km/h 74 % 0.0 mm
03:32 14.6 °C 10.0 °C 1017.5 hPa West 18.5 km/h 18.5 km/h 74 % 0.0 mm
03:37 14.7 °C 10.3 °C 1017.2 hPa WSW 18.5 km/h 18.5 km/h 75 % 0.0 mm
03:43 14.8 °C 10.4 °C 1017.5 hPa West 25.9 km/h 25.9 km/h 75 % 0.0 mm
03:44 14.9 °C 10.5 °C 1017.5 hPa West 24.1 km/h 24.1 km/h 75 % 0.0 mm
03:49 14.9 °C 10.6 °C 1017.5 hPa West 22.2 km/h 22.2 km/h 75 % 0.0 mm
03:50 14.9 °C 10.6 °C 1017.5 hPa West 27.8 km/h 27.8 km/h 75 % 0.0 mm
03:55 15.0 °C 10.6 °C 1017.5 hPa West 14.8 km/h 14.8 km/h 75 % 0.0 mm
03:57 15.0 °C 10.6 °C 1017.2 hPa WSW 16.7 km/h 16.7 km/h 75 % 0.0 mm
04:01 15.1 °C 10.7 °C 1017.5 hPa West 31.5 km/h 31.5 km/h 75 % 0.0 mm
04:06 15.2 °C 10.8 °C 1017.2 hPa WSW 37.0 km/h 37.0 km/h 75 % 0.0 mm
04:07 15.2 °C 10.8 °C 1017.2 hPa WNW 37.0 km/h 37.0 km/h 75 % 0.0 mm
04:08 15.2 °C 10.8 °C 1017.2 hPa WSW 33.3 km/h 33.3 km/h 75 % 0.0 mm
04:13 15.2 °C 10.8 °C 1017.2 hPa West 22.2 km/h 22.2 km/h 75 % 0.0 mm
04:18 15.1 °C 10.9 °C 1017.2 hPa West 27.8 km/h 27.8 km/h 76 % 0.0 mm
04:20 15.1 °C 10.9 °C 1017.2 hPa West 22.5 km/h 22.5 km/h 76 % 0.0 mm
04:25 15.1 °C 10.9 °C 1017.2 hPa West 31.5 km/h 31.5 km/h 76 % 0.0 mm
04:26 15.1 °C 10.9 °C 1017.2 hPa West 29.6 km/h 29.6 km/h 76 % 0.0 mm
04:31 15.1 °C 10.8 °C 1017.2 hPa WSW 29.6 km/h 29.6 km/h 76 % 0.0 mm
04:34 15.1 °C 10.8 °C 1017.2 hPa WSW 24.1 km/h 24.1 km/h 76 % 0.0 mm
04:39 15.1 °C 11.1 °C 1017.2 hPa West 24.1 km/h 24.1 km/h 77 % 0.0 mm
04:44 15.0 °C 11.2 °C 1017.2 hPa West 31.5 km/h 31.5 km/h 78 % 0.0 mm
04:45 14.9 °C 11.2 °C 1017.2 hPa West 24.1 km/h 24.1 km/h 78 % 0.0 mm
04:50 14.9 °C 11.2 °C 1016.8 hPa West 13.0 km/h 13.0 km/h 78 % 0.0 mm
04:51 14.9 °C 11.2 °C 1016.8 hPa West 16.1 km/h 16.1 km/h 78 % 0.0 mm
04:55 14.9 °C 11.2 °C 1017.2 hPa West 27.8 km/h 27.8 km/h 78 % 0.0 mm
04:57 14.9 °C 11.3 °C 1016.8 hPa WSW 18.5 km/h 18.5 km/h 79 % 0.0 mm
05:00 14.9 °C 11.3 °C 1016.8 hPa WSW 22.5 km/h 22.5 km/h 79 % 0.0 mm
05:05 14.8 °C 11.4 °C 1016.8 hPa West 25.9 km/h 25.9 km/h 80 % 0.0 mm
05:09 14.8 °C 11.4 °C 1016.8 hPa West 24.1 km/h 24.1 km/h 80 % 0.0 mm
05:10 14.8 °C 11.4 °C 1016.8 hPa West 18.5 km/h 18.5 km/h 80 % 0.0 mm
05:11 14.8 °C 11.4 °C 1016.8 hPa West 18.5 km/h 18.5 km/h 80 % 0.0 mm
05:16 14.8 °C 11.6 °C 1016.8 hPa West 18.5 km/h 18.5 km/h 81 % 0.0 mm
05:22 14.8 °C 11.6 °C 1016.5 hPa West 20.4 km/h 20.4 km/h 81 % 0.0 mm
05:25 14.8 °C 11.7 °C 1016.8 hPa West 20.4 km/h 20.4 km/h 82 % 0.0 mm
05:27 14.7 °C 11.7 °C 1016.5 hPa WNW 20.4 km/h 20.4 km/h 82 % 0.0 mm
05:30 14.7 °C 11.7 °C 1016.5 hPa WNW 22.2 km/h 22.2 km/h 82 % 0.0 mm
05:35 14.7 °C 11.8 °C 1016.5 hPa West 18.5 km/h 18.5 km/h 83 % 0.0 mm
05:37 14.7 °C 11.8 °C 1016.8 hPa West 18.5 km/h 18.5 km/h 83 % 0.0 mm
05:40 14.7 °C 11.8 °C 1016.5 hPa West 20.4 km/h 20.4 km/h 83 % 0.0 mm
05:44 14.7 °C 11.8 °C 1016.5 hPa West 17.7 km/h 17.7 km/h 83 % 0.0 mm
05:48 14.7 °C 12.0 °C 1016.5 hPa West 24.1 km/h 24.1 km/h 84 % 0.0 mm
05:53 14.6 °C 11.9 °C 1016.5 hPa West 29.6 km/h 29.6 km/h 84 % 0.0 mm
05:56 14.7 °C 12.0 °C 1016.5 hPa West 14.8 km/h 14.8 km/h 84 % 0.0 mm
05:59 14.6 °C 12.1 °C 1016.5 hPa West 22.2 km/h 22.2 km/h 85 % 0.0 mm
06:04 14.6 °C 12.1 °C 1016.5 hPa West 22.2 km/h 22.2 km/h 85 % 0.0 mm
06:06 14.6 °C 12.1 °C 1016.5 hPa WNW 19.3 km/h 19.3 km/h 85 % 0.0 mm
06:09 14.6 °C 12.1 °C 1016.5 hPa West 25.9 km/h 25.9 km/h 85 % 0.0 mm
06:11 14.6 °C 12.2 °C 1016.5 hPa West 18.5 km/h 18.5 km/h 86 % 0.0 mm
06:16 14.6 °C 12.2 °C 1016.8 hPa WNW 29.6 km/h 29.6 km/h 86 % 0.0 mm
06:18 14.6 °C 12.2 °C 1016.8 hPa West 22.2 km/h 22.2 km/h 86 % 0.0 mm
06:21 14.5 °C 12.2 °C 1016.8 hPa West 18.5 km/h 18.5 km/h 86 % 0.0 mm
06:24 14.5 °C 12.2 °C 1016.8 hPa West 18.5 km/h 18.5 km/h 86 % 0.0 mm
06:29 14.4 °C 12.3 °C 1016.8 hPa West 22.5 km/h 22.5 km/h 87 % 0.0 mm
06:30 14.4 °C 12.3 °C 1016.8 hPa WNW 27.8 km/h 27.8 km/h 87 % 0.0 mm
06:35 14.4 °C 12.3 °C 1016.8 hPa West 22.5 km/h 22.5 km/h 87 % 0.0 mm
06:36 14.4 °C 12.3 °C 1016.8 hPa West 22.2 km/h 22.2 km/h 87 % 0.0 mm
06:41 14.4 °C 12.5 °C 1016.8 hPa West 22.2 km/h 22.2 km/h 88 % 0.0 mm
06:46 14.4 °C 12.5 °C 1016.8 hPa West 27.8 km/h 27.8 km/h 88 % 0.0 mm
06:47 14.4 °C 12.5 °C 1016.8 hPa West 27.8 km/h 27.8 km/h 88 % 0.0 mm
06:48 14.4 °C 12.5 °C 1016.8 hPa West 22.2 km/h 22.2 km/h 88 % 0.0 mm
06:52 14.5 °C 12.6 °C 1016.8 hPa West 24.1 km/h 24.1 km/h 88 % 0.0 mm
06:53 14.4 °C 12.5 °C 1016.8 hPa West 18.5 km/h 18.5 km/h 88 % 0.0 mm
07:03 14.5 °C 12.7 °C 1016.8 hPa West 18.5 km/h 18.5 km/h 89 % 0.0 mm
07:04 14.5 °C 12.7 °C 1016.8 hPa West 22.5 km/h 22.5 km/h 89 % 0.0 mm
07:05 14.5 °C 12.7 °C 1016.8 hPa WSW 22.2 km/h 22.2 km/h 89 % 0.0 mm
07:10 14.5 °C 12.7 °C 1016.8 hPa West 24.1 km/h 24.1 km/h 89 % 0.0 mm
07:15 14.6 °C 12.8 °C 1016.8 hPa West 24.1 km/h 24.1 km/h 89 % 0.0 mm
07:16 14.6 °C 12.8 °C 1016.8 hPa West 24.1 km/h 24.1 km/h 89 % 0.0 mm
07:21 14.6 °C 12.8 °C 1016.8 hPa West 25.9 km/h 25.9 km/h 89 % 0.0 mm
07:22 14.6 °C 12.8 °C 1016.8 hPa West 27.4 km/h 27.4 km/h 89 % 0.0 mm
07:27 14.7 °C 12.9 °C 1016.8 hPa West 25.9 km/h 25.9 km/h 89 % 0.0 mm
07:32 14.7 °C 12.9 °C 1016.5 hPa WNW 24.1 km/h 24.1 km/h 89 % 0.0 mm
07:33 14.7 °C 12.9 °C 1016.5 hPa WNW 24.1 km/h 24.1 km/h 89 % 0.0 mm
07:36 14.7 °C 12.9 °C 1016.8 hPa West 24.1 km/h 24.1 km/h 89 % 0.0 mm
07:38 14.7 °C 12.9 °C 1016.5 hPa West 22.2 km/h 22.2 km/h 89 % 0.0 mm
07:43 14.7 °C 12.9 °C 1016.8 hPa West 20.4 km/h 20.4 km/h 89 % 0.0 mm
07:47 14.7 °C 12.9 °C 1016.8 hPa West 20.4 km/h 20.4 km/h 89 % 0.0 mm
07:49 14.7 °C 12.9 °C 1016.8 hPa WNW 18.5 km/h 18.5 km/h 89 % 0.0 mm
07:54 14.8 °C 13.0 °C 1016.8 hPa West 18.5 km/h 18.5 km/h 89 % 0.0 mm
07:55 14.8 °C 13.0 °C 1016.8 hPa WSW 18.5 km/h 18.5 km/h 89 % 0.0 mm
08:00 14.8 °C 13.1 °C 1016.8 hPa WSW 18.5 km/h 18.5 km/h 89 % 0.0 mm
08:05 14.9 °C 13.1 °C 1016.8 hPa West 22.2 km/h 22.2 km/h 89 % 0.0 mm
08:06 14.9 °C 13.1 °C 1016.8 hPa West 22.2 km/h 22.2 km/h 89 % 0.0 mm
08:11 14.9 °C 13.2 °C 1016.8 hPa WSW 25.9 km/h 25.9 km/h 89 % 0.0 mm
08:12 14.9 °C 13.2 °C 1016.8 hPa West 25.9 km/h 25.9 km/h 89 % 0.0 mm
08:17 15.0 °C 13.2 °C 1016.8 hPa WNW 25.7 km/h 25.7 km/h 89 % 0.0 mm
08:18 15.0 °C 13.2 °C 1016.8 hPa West 25.9 km/h 25.9 km/h 89 % 0.0 mm
08:21 15.1 °C 13.3 °C 1016.8 hPa WNW 25.9 km/h 25.9 km/h 89 % 0.0 mm
08:23 15.1 °C 13.3 °C 1016.8 hPa WNW 25.9 km/h 25.9 km/h 89 % 0.0 mm
08:28 15.1 °C 13.1 °C 1016.8 hPa West 25.9 km/h 25.9 km/h 88 % 0.0 mm
08:29 15.1 °C 13.1 °C 1016.8 hPa West 24.1 km/h 24.1 km/h 88 % 0.0 mm
08:34 15.2 °C 13.2 °C 1016.8 hPa West 27.8 km/h 27.8 km/h 88 % 0.0 mm
08:35 15.2 °C 13.2 °C 1016.8 hPa West 25.9 km/h 25.9 km/h 88 % 0.0 mm
08:40 15.3 °C 13.3 °C 1016.8 hPa WNW 24.1 km/h 24.1 km/h 88 % 0.0 mm
08:41 15.3 °C 13.3 °C 1016.8 hPa West 24.1 km/h 24.1 km/h 88 % 0.0 mm
08:45 15.3 °C 13.2 °C 1016.8 hPa WNW 22.2 km/h 22.2 km/h 87 % 0.0 mm
08:46 15.3 °C 13.2 °C 1016.8 hPa WNW 22.2 km/h 22.2 km/h 87 % 0.0 mm
08:51 15.4 °C 13.3 °C 1016.8 hPa WNW 24.1 km/h 24.1 km/h 87 % 0.0 mm
08:53 15.5 °C 13.2 °C 1016.8 hPa WNW 18.5 km/h 18.5 km/h 86 % 0.0 mm
08:57 15.6 °C 13.2 °C 1016.8 hPa West 24.1 km/h 24.1 km/h 86 % 0.0 mm
08:59 15.6 °C 13.3 °C 1016.8 hPa West 29.6 km/h 29.6 km/h 86 % 0.0 mm
09:03 15.8 °C 13.3 °C 1016.8 hPa West 30.6 km/h 30.6 km/h 85 % 0.0 mm
09:06 15.8 °C 13.1 °C 1016.8 hPa West 24.1 km/h 24.1 km/h 84 % 0.0 mm
09:11 16.1 °C 13.2 °C 1016.8 hPa West 29.6 km/h 29.6 km/h 83 % 0.0 mm
09:12 16.1 °C 13.2 °C 1016.8 hPa West 27.8 km/h 27.8 km/h 83 % 0.0 mm
09:18 16.2 °C 13.3 °C 1016.8 hPa West 27.8 km/h 27.8 km/h 83 % 0.0 mm
09:23 16.3 °C 13.3 °C 1016.8 hPa WNW 25.9 km/h 25.9 km/h 82 % 0.0 mm
09:25 16.4 °C 13.1 °C 1016.8 hPa West 30.6 km/h 30.6 km/h 81 % 0.0 mm
09:30 16.6 °C 13.3 °C 1016.8 hPa West 35.2 km/h 35.2 km/h 81 % 0.0 mm
09:35 16.7 °C 13.2 °C 1017.2 hPa West 30.6 km/h 30.6 km/h 80 % 0.0 mm
09:37 16.7 °C 13.2 °C 1017.2 hPa WNW 31.5 km/h 31.5 km/h 80 % 0.0 mm
09:42 16.7 °C 13.2 °C 1017.2 hPa West 31.5 km/h 31.5 km/h 80 % 0.0 mm
09:43 16.7 °C 13.3 °C 1017.5 hPa West 31.5 km/h 31.5 km/h 80 % 0.0 mm
09:48 16.7 °C 13.3 °C 1017.2 hPa WNW 33.3 km/h 33.3 km/h 80 % 0.0 mm
09:50 16.7 °C 13.3 °C 1017.2 hPa West 27.8 km/h 27.8 km/h 80 % 0.0 mm
09:53 16.7 °C 13.3 °C 1017.5 hPa West 25.9 km/h 25.9 km/h 80 % 0.0 mm
09:58 16.7 °C 13.3 °C 1017.5 hPa West 27.4 km/h 27.4 km/h 80 % 0.0 mm
10:01 16.7 °C 13.3 °C 1017.5 hPa West 31.5 km/h 31.5 km/h 80 % 0.0 mm
10:03 16.8 °C 13.3 °C 1017.5 hPa WNW 31.5 km/h 31.5 km/h 80 % 0.0 mm
10:08 16.8 °C 13.3 °C 1017.5 hPa West 24.1 km/h 24.1 km/h 80 % 0.0 mm
10:09 16.9 °C 13.4 °C 1017.5 hPa WSW 27.8 km/h 27.8 km/h 80 % 0.0 mm
10:14 16.9 °C 13.3 °C 1017.5 hPa WNW 25.9 km/h 25.9 km/h 79 % 0.0 mm
10:20 17.1 °C 13.4 °C 1017.8 hPa West 29.6 km/h 29.6 km/h 79 % 0.0 mm
10:25 17.1 °C 13.6 °C 1017.8 hPa WNW 25.9 km/h 25.9 km/h 80 % 0.0 mm
10:29 17.0 °C 13.5 °C 1017.8 hPa West 27.8 km/h 27.8 km/h 80 % 0.0 mm
10:33 16.9 °C 13.4 °C 1017.8 hPa West 25.9 km/h 25.9 km/h 80 % 0.0 mm
10:36 16.8 °C 13.6 °C 1017.8 hPa West 20.9 km/h 20.9 km/h 81 % 0.0 mm
10:40 16.8 °C 13.5 °C 1017.8 hPa West 20.4 km/h 20.4 km/h 81 % 0.0 mm
10:45 16.9 °C 13.7 °C 1017.8 hPa West 16.7 km/h 16.7 km/h 81 % 0.0 mm
10:46 16.9 °C 13.4 °C 1017.8 hPa WNW 16.7 km/h 16.7 km/h 80 % 0.0 mm
10:51 17.2 °C 13.7 °C 1017.8 hPa West 25.9 km/h 25.9 km/h 80 % 0.0 mm
10:56 17.3 °C 13.7 °C 1017.8 hPa WSW 32.2 km/h 32.2 km/h 79 % 0.0 mm
10:57 17.3 °C 13.7 °C 1017.8 hPa West 22.5 km/h 22.5 km/h 79 % 0.0 mm
11:02 17.4 °C 13.6 °C 1017.8 hPa West 20.4 km/h 20.4 km/h 78 % 0.0 mm
11:03 17.5 °C 13.6 °C 1017.8 hPa West 22.2 km/h 22.2 km/h 78 % 0.0 mm
11:08 17.6 °C 13.7 °C 1017.8 hPa West 22.2 km/h 22.2 km/h 78 % 0.0 mm
11:09 17.6 °C 13.7 °C 1017.8 hPa West 27.4 km/h 27.4 km/h 78 % 0.0 mm
11:14 17.7 °C 13.6 °C 1017.8 hPa West 31.5 km/h 31.5 km/h 77 % 0.0 mm
11:15 17.7 °C 13.6 °C 1017.8 hPa West 29.6 km/h 29.6 km/h 77 % 0.0 mm
11:20 17.7 °C 13.6 °C 1017.8 hPa West 27.8 km/h 27.8 km/h 77 % 0.0 mm
11:21 17.7 °C 13.6 °C 1017.8 hPa WSW 27.8 km/h 27.8 km/h 77 % 0.0 mm
11:26 17.8 °C 13.7 °C 1017.8 hPa WNW 24.1 km/h 24.1 km/h 77 % 0.0 mm
11:28 17.8 °C 13.7 °C 1017.8 hPa WNW 20.4 km/h 20.4 km/h 77 % 0.0 mm
11:33 17.9 °C 13.7 °C 1018.2 hPa West 27.8 km/h 27.8 km/h 76 % 0.0 mm
11:39 18.1 °C 13.8 °C 1017.8 hPa West 25.9 km/h 25.9 km/h 76 % 0.0 mm
11:40 18.1 °C 13.8 °C 1017.8 hPa West 25.9 km/h 25.9 km/h 76 % 0.0 mm
11:45 18.2 °C 13.9 °C 1017.8 hPa WSW 25.7 km/h 25.7 km/h 76 % 0.0 mm
11:47 18.2 °C 13.7 °C 1017.8 hPa WSW 25.9 km/h 25.9 km/h 75 % 0.0 mm
11:51 18.2 °C 13.7 °C 1017.8 hPa West 37.0 km/h 37.0 km/h 75 % 0.0 mm
11:53 18.2 °C 13.7 °C 1017.8 hPa WNW 37.0 km/h 37.0 km/h 75 % 0.0 mm
11:58 18.2 °C 13.9 °C 1017.8 hPa WNW 29.0 km/h 29.0 km/h 76 % 0.0 mm
11:59 18.2 °C 13.7 °C 1017.8 hPa West 29.6 km/h 29.6 km/h 75 % 0.0 mm
12:00 18.3 °C 13.8 °C 1017.8 hPa WSW 29.6 km/h 29.6 km/h 75 % 0.0 mm
12:05 18.4 °C 13.9 °C 1017.8 hPa West 25.9 km/h 25.9 km/h 75 % 0.0 mm
12:07 18.4 °C 13.9 °C 1017.8 hPa West 24.1 km/h 24.1 km/h 75 % 0.0 mm
12:10 18.4 °C 13.7 °C 1017.8 hPa West 35.2 km/h 35.2 km/h 74 % 0.0 mm
12:13 18.6 °C 13.8 °C 1017.8 hPa WNW 25.9 km/h 25.9 km/h 74 % 0.0 mm
12:18 18.7 °C 13.7 °C 1017.8 hPa West 32.2 km/h 32.2 km/h 73 % 0.0 mm
12:20 18.7 °C 13.7 °C 1017.8 hPa WSW 37.0 km/h 37.0 km/h 73 % 0.0 mm
12:25 18.7 °C 13.7 °C 1017.8 hPa West 31.5 km/h 31.5 km/h 73 % 0.0 mm
12:26 18.7 °C 13.7 °C 1017.8 hPa West 31.5 km/h 31.5 km/h 73 % 0.0 mm
12:31 18.7 °C 13.7 °C 1017.8 hPa West 32.2 km/h 32.2 km/h 73 % 0.0 mm
12:32 18.7 °C 13.7 °C 1017.8 hPa West 31.5 km/h 31.5 km/h 73 % 0.0 mm
12:33 18.7 °C 13.5 °C 1017.8 hPa WSW 31.5 km/h 31.5 km/h 72 % 0.0 mm
12:38 18.7 °C 13.5 °C 1017.8 hPa West 31.5 km/h 31.5 km/h 72 % 0.0 mm
12:39 18.7 °C 13.5 °C 1017.5 hPa West 29.6 km/h 29.6 km/h 72 % 0.0 mm
12:44 18.6 °C 13.4 °C 1017.5 hPa WNW 31.5 km/h 31.5 km/h 72 % 0.0 mm
12:45 18.6 °C 13.4 °C 1017.8 hPa WNW 33.3 km/h 33.3 km/h 72 % 0.0 mm
12:50 18.7 °C 13.5 °C 1017.5 hPa West 37.0 km/h 37.0 km/h 72 % 0.0 mm
12:51 18.7 °C 13.6 °C 1017.5 hPa WNW 37.0 km/h 37.0 km/h 72 % 0.0 mm
12:56 18.8 °C 13.7 °C 1017.5 hPa West 31.5 km/h 31.5 km/h 72 % 0.0 mm
12:57 18.9 °C 13.7 °C 1017.5 hPa WSW 24.1 km/h 24.1 km/h 72 % 0.0 mm
13:00 18.9 °C 13.6 °C 1017.5 hPa WNW 35.2 km/h 35.2 km/h 71 % 0.0 mm
13:03 18.9 °C 13.6 °C 1017.5 hPa WNW 38.9 km/h 38.9 km/h 71 % 0.0 mm
13:08 19.0 °C 13.6 °C 1017.5 hPa WNW 30.6 km/h 30.6 km/h 71 % 0.0 mm
13:09 19.0 °C 13.6 °C 1017.5 hPa West 35.2 km/h 35.2 km/h 71 % 0.0 mm
13:12 19.1 °C 13.7 °C 1017.2 hPa WNW 31.5 km/h 31.5 km/h 71 % 0.0 mm
13:15 19.1 °C 13.7 °C 1017.5 hPa West 33.3 km/h 33.3 km/h 71 % 0.0 mm
13:18 19.1 °C 13.4 °C 1017.5 hPa West 38.9 km/h 38.9 km/h 70 % 0.0 mm
13:20 19.0 °C 13.4 °C 1017.2 hPa West 33.8 km/h 33.8 km/h 70 % 0.0 mm
13:25 19.0 °C 13.6 °C 1017.2 hPa West 29.6 km/h 29.6 km/h 71 % 0.0 mm
13:26 19.0 °C 13.6 °C 1017.5 hPa West 32.2 km/h 32.2 km/h 71 % 0.0 mm
13:31 19.0 °C 13.6 °C 1017.2 hPa WSW 38.9 km/h 38.9 km/h 71 % 0.0 mm
13:32 19.0 °C 13.6 °C 1017.2 hPa West 38.9 km/h 38.9 km/h 71 % 0.0 mm
13:33 19.0 °C 13.6 °C 1017.2 hPa WNW 31.5 km/h 31.5 km/h 71 % 0.0 mm
13:38 19.0 °C 13.6 °C 1017.2 hPa West 31.5 km/h 31.5 km/h 71 % 0.0 mm
13:39 19.0 °C 13.6 °C 1017.2 hPa WNW 31.5 km/h 31.5 km/h 71 % 0.0 mm
13:43 19.1 °C 13.7 °C 1017.2 hPa West 25.9 km/h 25.9 km/h 71 % 0.0 mm
13:45 19.1 °C 13.7 °C 1017.2 hPa West 25.9 km/h 25.9 km/h 71 % 0.0 mm
13:50 19.1 °C 13.5 °C 1017.2 hPa WNW 33.3 km/h 33.3 km/h 70 % 0.0 mm
13:51 19.1 °C 13.7 °C 1017.2 hPa WNW 33.3 km/h 33.3 km/h 71 % 0.0 mm
13:52 19.1 °C 13.7 °C 1017.2 hPa WNW 33.3 km/h 33.3 km/h 71 % 0.0 mm
13:57 19.1 °C 13.7 °C 1017.2 hPa West 35.2 km/h 35.2 km/h 71 % 0.0 mm
13:58 19.1 °C 13.7 °C 1017.2 hPa West 38.9 km/h 38.9 km/h 71 % 0.0 mm
13:59 19.1 °C 13.4 °C 1017.2 hPa WNW 38.9 km/h 38.9 km/h 70 % 0.0 mm
14:04 19.0 °C 13.4 °C 1017.2 hPa West 35.2 km/h 35.2 km/h 70 % 0.0 mm
14:05 19.0 °C 13.4 °C 1017.2 hPa West 44.4 km/h 44.4 km/h 70 % 0.0 mm
14:10 19.2 °C 13.6 °C 1017.2 hPa WNW 35.2 km/h 35.2 km/h 70 % 0.0 mm
14:12 19.2 °C 13.6 °C 1016.8 hPa West 35.2 km/h 35.2 km/h 70 % 0.0 mm
14:15 19.2 °C 13.6 °C 1017.2 hPa WNW 40.7 km/h 40.7 km/h 70 % 0.0 mm
14:17 19.2 °C 13.6 °C 1016.8 hPa WNW 33.3 km/h 33.3 km/h 70 % 0.0 mm
14:22 19.3 °C 13.7 °C 1017.2 hPa West 29.0 km/h 29.0 km/h 70 % 0.0 mm
14:23 19.3 °C 13.7 °C 1017.2 hPa West 30.6 km/h 30.6 km/h 70 % 0.0 mm
14:28 19.3 °C 13.7 °C 1016.8 hPa WSW 44.4 km/h 44.4 km/h 70 % 0.0 mm
14:29 19.3 °C 13.7 °C 1016.8 hPa WNW 44.4 km/h 44.4 km/h 70 % 0.0 mm
14:34 19.2 °C 13.8 °C 1016.8 hPa West 25.9 km/h 25.9 km/h 71 % 0.0 mm
14:35 19.2 °C 13.8 °C 1016.8 hPa WSW 27.4 km/h 27.4 km/h 71 % 0.0 mm
14:40 19.2 °C 13.8 °C 1016.8 hPa West 33.3 km/h 33.3 km/h 71 % 0.0 mm
14:41 19.1 °C 13.7 °C 1016.8 hPa West 25.9 km/h 25.9 km/h 71 % 0.0 mm
14:45 19.1 °C 13.9 °C 1016.8 hPa WSW 32.2 km/h 32.2 km/h 72 % 0.0 mm
14:46 19.1 °C 13.9 °C 1017.2 hPa West 27.8 km/h 27.8 km/h 72 % 0.0 mm
14:51 19.1 °C 13.9 °C 1016.8 hPa West 27.8 km/h 27.8 km/h 72 % 0.0 mm
14:52 19.2 °C 14.0 °C 1016.8 hPa West 29.0 km/h 29.0 km/h 72 % 0.0 mm
14:55 19.1 °C 13.7 °C 1016.8 hPa West 33.3 km/h 33.3 km/h 71 % 0.0 mm
14:59 19.1 °C 13.9 °C 1016.8 hPa West 33.8 km/h 33.8 km/h 72 % 0.0 mm
15:02 19.1 °C 13.9 °C 1016.8 hPa West 31.5 km/h 31.5 km/h 72 % 0.0 mm
15:05 19.1 °C 13.9 °C 1016.8 hPa West 27.8 km/h 27.8 km/h 72 % 0.0 mm
15:08 19.1 °C 13.9 °C 1016.8 hPa West 24.1 km/h 24.1 km/h 72 % 0.0 mm
15:10 19.1 °C 13.9 °C 1016.8 hPa West 22.2 km/h 22.2 km/h 72 % 0.0 mm
15:15 19.1 °C 13.9 °C 1016.8 hPa West 29.6 km/h 29.6 km/h 72 % 0.0 mm
15:20 19.2 °C 14.0 °C 1017.2 hPa West 25.9 km/h 25.9 km/h 72 % 0.0 mm
15:25 19.2 °C 14.0 °C 1016.8 hPa West 29.6 km/h 29.6 km/h 72 % 0.0 mm
15:26 19.2 °C 14.0 °C 1017.2 hPa West 29.6 km/h 29.6 km/h 72 % 0.0 mm
15:29 19.2 °C 14.1 °C 1016.8 hPa West 25.9 km/h 25.9 km/h 72 % 0.0 mm
15:31 19.2 °C 13.8 °C 1017.2 hPa West 31.5 km/h 31.5 km/h 71 % 0.0 mm
15:36 19.1 °C 13.9 °C 1017.2 hPa WSW 24.1 km/h 24.1 km/h 72 % 0.0 mm
15:37 19.0 °C 13.8 °C 1017.2 hPa West 31.5 km/h 31.5 km/h 72 % 0.0 mm
15:42 18.9 °C 14.0 °C 1017.2 hPa West 25.9 km/h 25.9 km/h 73 % 0.0 mm
15:43 18.9 °C 14.0 °C 1017.2 hPa West 25.9 km/h 25.9 km/h 73 % 0.0 mm
15:44 18.9 °C 13.9 °C 1017.2 hPa West 25.9 km/h 25.9 km/h 73 % 0.0 mm
15:49 18.9 °C 13.9 °C 1017.2 hPa WNW 31.5 km/h 31.5 km/h 73 % 0.0 mm
15:50 18.9 °C 13.9 °C 1017.2 hPa WNW 25.9 km/h 25.9 km/h 73 % 0.0 mm
15:55 18.8 °C 13.8 °C 1017.2 hPa West 33.8 km/h 33.8 km/h 73 % 0.0 mm
16:00 18.8 °C 13.8 °C 1017.2 hPa West 30.6 km/h 30.6 km/h 73 % 0.0 mm
16:04 18.7 °C 13.8 °C 1017.2 hPa WNW 33.3 km/h 33.3 km/h 73 % 0.0 mm
16:09 18.6 °C 13.9 °C 1017.5 hPa West 31.5 km/h 31.5 km/h 74 % 0.0 mm
16:14 18.4 °C 13.9 °C 1017.2 hPa WNW 25.9 km/h 25.9 km/h 75 % 0.0 mm
16:15 18.4 °C 13.9 °C 1017.2 hPa WNW 25.9 km/h 25.9 km/h 75 % 0.0 mm
16:16 18.4 °C 13.9 °C 1017.5 hPa West 25.9 km/h 25.9 km/h 75 % 0.0 mm
16:20 18.4 °C 13.9 °C 1017.5 hPa West 22.2 km/h 22.2 km/h 75 % 0.0 mm
16:22 18.4 °C 13.9 °C 1017.5 hPa West 22.2 km/h 22.2 km/h 75 % 0.0 mm
16:26 18.5 °C 14.0 °C 1017.5 hPa West 29.6 km/h 29.6 km/h 75 % 0.0 mm
16:31 18.5 °C 14.0 °C 1017.5 hPa WNW 29.6 km/h 29.6 km/h 75 % 0.0 mm
16:32 18.5 °C 14.0 °C 1017.5 hPa West 29.6 km/h 29.6 km/h 75 % 0.0 mm
16:34 18.4 °C 13.9 °C 1017.5 hPa West 27.8 km/h 27.8 km/h 75 % 0.0 mm
16:37 18.4 °C 13.9 °C 1017.5 hPa West 31.5 km/h 31.5 km/h 75 % 0.0 mm
16:43 18.4 °C 13.9 °C 1017.5 hPa WNW 22.2 km/h 22.2 km/h 75 % 0.0 mm
16:44 18.4 °C 13.9 °C 1017.5 hPa WSW 29.6 km/h 29.6 km/h 75 % 0.0 mm
16:49 18.3 °C 13.8 °C 1017.5 hPa WSW 22.2 km/h 22.2 km/h 75 % 0.0 mm
16:54 18.3 °C 13.8 °C 1017.8 hPa West 24.1 km/h 24.1 km/h 75 % 0.0 mm
16:55 18.3 °C 13.8 °C 1017.8 hPa West 24.1 km/h 24.1 km/h 75 % 0.0 mm
17:00 18.2 °C 13.7 °C 1017.8 hPa WNW 31.5 km/h 31.5 km/h 75 % 0.0 mm
17:04 18.1 °C 13.8 °C 1017.5 hPa WSW 25.9 km/h 25.9 km/h 76 % 0.0 mm
17:07 17.9 °C 13.7 °C 1017.8 hPa WSW 31.5 km/h 31.5 km/h 76 % 0.0 mm
17:09 17.8 °C 13.6 °C 1017.8 hPa West 29.6 km/h 29.6 km/h 76 % 0.0 mm
17:11 17.8 °C 13.7 °C 1017.8 hPa West 25.9 km/h 25.9 km/h 77 % 0.0 mm
17:16 17.7 °C 13.6 °C 1017.5 hPa West 25.9 km/h 25.9 km/h 77 % 0.0 mm
17:18 17.6 °C 13.6 °C 1017.8 hPa WSW 29.6 km/h 29.6 km/h 77 % 0.0 mm
17:23 17.6 °C 13.5 °C 1017.8 hPa West 27.8 km/h 27.8 km/h 77 % 0.0 mm
17:28 17.4 °C 13.5 °C 1017.8 hPa WSW 25.9 km/h 25.9 km/h 78 % 0.0 mm
17:29 17.4 °C 13.5 °C 1017.8 hPa WSW 25.9 km/h 25.9 km/h 78 % 0.0 mm
17:34 17.3 °C 13.4 °C 1017.8 hPa West 25.9 km/h 25.9 km/h 78 % 0.0 mm
17:39 17.2 °C 13.5 °C 1017.5 hPa West 37.0 km/h 37.0 km/h 79 % 0.0 mm
17:44 17.1 °C 13.4 °C 1017.5 hPa West 29.6 km/h 29.6 km/h 79 % 0.0 mm
17:45 17.1 °C 13.4 °C 1017.8 hPa WSW 29.6 km/h 29.6 km/h 79 % 0.0 mm
17:50 16.9 °C 13.4 °C 1017.8 hPa West 27.8 km/h 27.8 km/h 80 % 0.0 mm
17:51 16.9 °C 13.4 °C 1017.8 hPa West 27.8 km/h 27.8 km/h 80 % 0.0 mm
17:52 16.9 °C 13.4 °C 1017.8 hPa West 27.8 km/h 27.8 km/h 80 % 0.0 mm
17:57 16.8 °C 13.5 °C 1017.8 hPa WSW 33.3 km/h 33.3 km/h 81 % 0.0 mm
18:01 16.7 °C 13.4 °C 1017.8 hPa West 25.9 km/h 25.9 km/h 81 % 0.0 mm
18:02 16.7 °C 13.4 °C 1017.8 hPa WNW 31.5 km/h 31.5 km/h 81 % 0.0 mm
18:07 16.6 °C 13.4 °C 1017.8 hPa West 25.9 km/h 25.9 km/h 82 % 0.0 mm
18:12 16.5 °C 13.4 °C 1018.2 hPa West 27.8 km/h 27.8 km/h 82 % 0.0 mm
18:13 16.5 °C 13.4 °C 1018.2 hPa West 27.8 km/h 27.8 km/h 82 % 0.0 mm
18:18 16.5 °C 13.4 °C 1018.2 hPa West 30.6 km/h 30.6 km/h 82 % 0.0 mm
18:19 16.4 °C 13.3 °C 1018.2 hPa West 35.2 km/h 35.2 km/h 82 % 0.0 mm
18:23 16.4 °C 13.6 °C 1018.2 hPa WSW 31.5 km/h 31.5 km/h 83 % 0.0 mm
18:28 16.4 °C 13.5 °C 1018.2 hPa West 18.5 km/h 18.5 km/h 83 % 0.0 mm
18:29 16.4 °C 13.5 °C 1018.2 hPa West 18.5 km/h 18.5 km/h 83 % 0.0 mm
18:30 16.4 °C 13.5 °C 1018.2 hPa West 22.2 km/h 22.2 km/h 83 % 0.0 mm
18:34 16.4 °C 13.5 °C 1018.2 hPa West 18.5 km/h 18.5 km/h 83 % 0.0 mm
18:39 16.4 °C 13.5 °C 1018.2 hPa WSW 20.9 km/h 20.9 km/h 83 % 0.0 mm
18:40 16.4 °C 13.5 °C 1018.2 hPa West 20.4 km/h 20.4 km/h 83 % 0.0 mm
18:42 16.4 °C 13.5 °C 1018.2 hPa West 20.4 km/h 20.4 km/h 83 % 0.0 mm
18:45 16.3 °C 13.4 °C 1018.2 hPa West 22.2 km/h 22.2 km/h 83 % 0.0 mm
18:50 16.3 °C 13.4 °C 1018.2 hPa West 20.4 km/h 20.4 km/h 83 % 0.0 mm
18:51 16.3 °C 13.4 °C 1018.2 hPa WNW 20.4 km/h 20.4 km/h 83 % 0.0 mm
18:56 16.3 °C 13.4 °C 1018.2 hPa West 22.2 km/h 22.2 km/h 83 % 0.0 mm
18:57 16.3 °C 13.4 °C 1018.2 hPa West 16.7 km/h 16.7 km/h 83 % 0.0 mm
19:02 16.4 °C 13.5 °C 1018.5 hPa West 18.5 km/h 18.5 km/h 83 % 0.0 mm
19:04 16.4 °C 13.5 °C 1018.5 hPa West 16.7 km/h 16.7 km/h 83 % 0.0 mm
19:05 16.4 °C 13.5 °C 1018.2 hPa West 11.1 km/h 11.1 km/h 83 % 0.0 mm
19:09 16.3 °C 13.4 °C 1018.5 hPa West 13.0 km/h 13.0 km/h 83 % 0.0 mm
19:14 16.3 °C 13.4 °C 1018.5 hPa West 11.1 km/h 11.1 km/h 83 % 0.0 mm
19:15 16.3 °C 13.4 °C 1018.5 hPa West 11.1 km/h 11.1 km/h 83 % 0.0 mm
19:19 16.3 °C 13.4 °C 1018.5 hPa WNW 9.7 km/h 9.7 km/h 83 % 0.0 mm
19:22 16.3 °C 13.4 °C 1018.5 hPa WNW 18.5 km/h 18.5 km/h 83 % 0.0 mm
19:26 16.4 °C 13.5 °C 1018.2 hPa West 13.0 km/h 13.0 km/h 83 % 0.0 mm
19:31 16.4 °C 13.5 °C 1018.2 hPa WNW 16.7 km/h 16.7 km/h 83 % 0.0 mm
19:36 16.4 °C 13.5 °C 1018.2 hPa WNW 16.7 km/h 16.7 km/h 83 % 0.0 mm
19:39 16.4 °C 13.6 °C 1018.2 hPa WNW 19.3 km/h 19.3 km/h 83 % 0.0 mm
19:43 16.4 °C 13.6 °C 1018.2 hPa West 14.8 km/h 14.8 km/h 83 % 0.0 mm
19:44 16.5 °C 13.4 °C 1018.5 hPa West 16.1 km/h 16.1 km/h 82 % 0.0 mm
19:49 16.5 °C 13.4 °C 1018.5 hPa West 11.3 km/h 11.3 km/h 82 % 0.0 mm
19:52 16.5 °C 13.4 °C 1018.5 hPa WSW 12.9 km/h 12.9 km/h 82 % 0.0 mm
19:57 16.6 °C 13.4 °C 1018.5 hPa West 14.8 km/h 14.8 km/h 82 % 0.0 mm
20:01 16.6 °C 13.4 °C 1018.5 hPa West 9.3 km/h 9.3 km/h 82 % 0.0 mm
20:06 16.6 °C 13.4 °C 1018.5 hPa WNW 5.6 km/h 5.6 km/h 82 % 0.0 mm
20:11 16.6 °C 13.4 °C 1018.5 hPa WNW 5.6 km/h 5.6 km/h 82 % 0.0 mm
20:12 16.5 °C 13.4 °C 1018.8 hPa WNW 5.6 km/h 5.6 km/h 82 % 0.0 mm
20:16 16.5 °C 13.4 °C 1018.8 hPa WNW 11.3 km/h 11.3 km/h 82 % 0.0 mm
20:17 16.6 °C 13.4 °C 1018.8 hPa NW 13.0 km/h 13.0 km/h 82 % 0.0 mm
20:22 16.5 °C 13.4 °C 1018.8 hPa WNW 7.4 km/h 7.4 km/h 82 % 0.0 mm
20:27 16.5 °C 13.4 °C 1018.8 hPa WNW 3.7 km/h 3.7 km/h 82 % 0.0 mm
20:28 16.5 °C 13.4 °C 1018.8 hPa WNW 3.7 km/h 3.7 km/h 82 % 0.0 mm
20:34 16.5 °C 13.4 °C 1018.8 hPa WNW 5.6 km/h 5.6 km/h 82 % 0.0 mm
20:39 16.5 °C 13.4 °C 1018.8 hPa WNW 1.9 km/h   82 % 0.0 mm
20:44 16.5 °C 13.4 °C 1018.8 hPa WNW 1.6 km/h 1.6 km/h 82 % 0.0 mm
20:45 16.5 °C 13.4 °C 1018.8 hPa WNW 3.7 km/h 3.7 km/h 82 % 0.0 mm
20:50 16.5 °C 13.4 °C 1018.8 hPa WNW 5.6 km/h 5.6 km/h 82 % 0.0 mm
20:51 16.5 °C 13.4 °C 1018.8 hPa WNW 5.6 km/h 5.6 km/h 82 % 0.0 mm
20:53 16.5 °C 13.4 °C 1018.8 hPa WNW 3.7 km/h 3.7 km/h 82 % 0.0 mm
20:57 16.5 °C 13.4 °C 1018.8 hPa SW 3.7 km/h 3.7 km/h 82 % 0.0 mm
20:58 16.5 °C 13.4 °C 1018.8 hPa SW 3.7 km/h 3.7 km/h 82 % 0.0 mm
21:03 16.6 °C 13.4 °C 1018.8 hPa Calm     82 % 0.0 mm
21:04 16.6 °C 13.4 °C 1018.8 hPa SW 3.7 km/h 3.7 km/h 82 % 0.0 mm
21:09 16.6 °C 13.4 °C 1018.8 hPa SW 3.7 km/h   82 % 0.0 mm
21:14 16.6 °C 13.3 °C 1019.2 hPa Calm     81 % 0.0 mm
21:15 16.6 °C 13.3 °C 1019.2 hPa SW 5.6 km/h 5.6 km/h 81 % 0.0 mm
21:20 16.6 °C 13.3 °C 1019.2 hPa SW 3.2 km/h 8.0 km/h 81 % 0.0 mm
21:25 16.7 °C 13.4 °C 1019.2 hPa SW 5.6 km/h 5.6 km/h 81 % 0.0 mm
21:30 16.7 °C 13.4 °C 1019.2 hPa SE 11.1 km/h 11.1 km/h 81 % 0.0 mm
21:35 16.8 °C 13.6 °C 1019.2 hPa SSE 11.3 km/h 11.3 km/h 81 % 0.0 mm
21:37 16.9 °C 13.6 °C 1019.2 hPa SSE 14.8 km/h 14.8 km/h 81 % 0.0 mm
21:42 17.1 °C 13.6 °C 1019.2 hPa SSE 18.5 km/h 18.5 km/h 80 % 0.0 mm
21:44 17.1 °C 13.6 °C 1019.2 hPa South 16.7 km/h 16.7 km/h 80 % 0.0 mm
21:48 17.1 °C 13.6 °C 1019.5 hPa SSE 18.5 km/h 18.5 km/h 80 % 0.0 mm
21:49 17.1 °C 13.6 °C 1019.5 hPa SSE 14.8 km/h 14.8 km/h 80 % 0.0 mm
21:54 17.1 °C 13.6 °C 1019.5 hPa SSW 20.4 km/h 20.4 km/h 80 % 0.0 mm
21:55 17.1 °C 13.8 °C 1019.5 hPa SW 20.4 km/h 20.4 km/h 81 % 0.0 mm
22:00 16.9 °C 13.7 °C 1019.5 hPa SSW 18.5 km/h 18.5 km/h 81 % 0.0 mm
22:01 16.9 °C 13.7 °C 1019.5 hPa SW 18.5 km/h 18.5 km/h 81 % 0.0 mm
22:02 16.9 °C 13.7 °C 1019.5 hPa SW 16.7 km/h 16.7 km/h 81 % 0.0 mm
22:07 16.9 °C 13.7 °C 1019.5 hPa SW 16.7 km/h 16.7 km/h 81 % 0.0 mm
22:08 16.9 °C 13.7 °C 1019.5 hPa SW 16.7 km/h 16.7 km/h 81 % 0.0 mm
22:10 16.9 °C 13.7 °C 1019.5 hPa SW 25.9 km/h 25.9 km/h 81 % 0.0 mm
22:14 16.9 °C 13.8 °C 1019.5 hPa SW 20.4 km/h 20.4 km/h 82 % 0.0 mm
22:15 16.8 °C 13.7 °C 1019.5 hPa SW 20.4 km/h 20.4 km/h 82 % 0.0 mm
22:20 16.8 °C 13.5 °C 1019.5 hPa WSW 16.7 km/h 16.7 km/h 81 % 0.0 mm
22:25 16.9 °C 13.7 °C 1019.9 hPa WSW 24.1 km/h 24.1 km/h 81 % 0.0 mm
22:26 17.0 °C 13.7 °C 1019.9 hPa WSW 24.1 km/h 24.1 km/h 81 % 0.0 mm
22:31 16.9 °C 13.8 °C 1019.9 hPa WSW 22.2 km/h 22.2 km/h 82 % 0.0 mm
22:32 16.9 °C 13.8 °C 1019.9 hPa WSW 25.7 km/h 25.7 km/h 82 % 0.0 mm
22:37 16.9 °C 13.8 °C 1019.9 hPa WSW 22.2 km/h 22.2 km/h 82 % 0.0 mm
22:38 16.9 °C 13.8 °C 1019.9 hPa WSW 18.5 km/h 18.5 km/h 82 % 0.0 mm
22:41 16.9 °C 13.8 °C 1019.9 hPa WSW 18.5 km/h 18.5 km/h 82 % 0.0 mm
22:44 16.9 °C 13.8 °C 1019.9 hPa WSW 14.8 km/h 14.8 km/h 82 % 0.0 mm
22:49 16.8 °C 13.7 °C 1019.9 hPa WSW 14.8 km/h 14.8 km/h 82 % 0.0 mm
22:51 16.8 °C 13.6 °C 1019.9 hPa SW 11.1 km/h 11.1 km/h 81 % 0.0 mm
22:53 16.8 °C 13.6 °C 1019.9 hPa SW 9.3 km/h 9.3 km/h 81 % 0.0 mm
22:57 16.8 °C 13.6 °C 1019.9 hPa WSW 8.0 km/h 8.0 km/h 81 % 0.0 mm
22:58 16.8 °C 13.3 °C 1019.9 hPa WSW 9.3 km/h 9.3 km/h 80 % 0.0 mm
23:02 16.9 °C 13.4 °C 1019.9 hPa WSW 11.1 km/h 11.1 km/h 80 % 0.0 mm
23:03 16.9 °C 13.4 °C 1019.9 hPa WSW 7.4 km/h 7.4 km/h 80 % 0.0 mm
23:06 17.0 °C 13.3 °C 1019.9 hPa WSW 5.6 km/h 5.6 km/h 79 % 0.0 mm
23:09 17.1 °C 13.4 °C 1019.9 hPa WSW 5.6 km/h 5.6 km/h 79 % 0.0 mm
23:13 17.1 °C 13.2 °C 1019.9 hPa West 13.0 km/h 13.0 km/h 78 % 0.0 mm
23:17 17.2 °C 13.2 °C 1019.9 hPa West 9.7 km/h 9.7 km/h 77 % 0.0 mm
23:22 17.3 °C 13.1 °C 1019.9 hPa West 5.6 km/h 5.6 km/h 76 % 0.0 mm
23:24 17.3 °C 12.8 °C 1019.9 hPa West 5.6 km/h 5.6 km/h 75 % 0.0 mm
23:29 17.4 °C 12.8 °C 1019.9 hPa West 5.6 km/h 5.6 km/h 74 % 0.0 mm
23:34 17.5 °C 12.6 °C 1020.2 hPa WSW 9.7 km/h 9.7 km/h 73 % 0.0 mm
23:35 17.6 °C 12.7 °C 1020.2 hPa WSW 8.0 km/h 8.0 km/h 73 % 0.0 mm
23:40 17.7 °C 12.8 °C 1020.2 hPa SW 16.7 km/h 16.7 km/h 73 % 0.0 mm
23:42 17.7 °C 12.6 °C 1020.2 hPa WSW 16.7 km/h 16.7 km/h 72 % 0.0 mm
23:46 17.8 °C 12.7 °C 1020.2 hPa SW 19.3 km/h 19.3 km/h 72 % 0.0 mm
23:51 17.8 °C 12.5 °C 1020.2 hPa WSW 19.3 km/h 19.3 km/h 71 % 0.0 mm
23:56 18.0 °C 12.7 °C 1020.2 hPa SW 24.1 km/h 24.1 km/h 71 % 0.0 mm
23:58 18.0 °C 12.7 °C 1020.2 hPa WSW 29.6 km/h 29.6 km/h 71 % 0.0 mm
23:59 18.0 °C 12.7 °C 1020.2 hPa WSW 29.6 km/h 29.6 km/h 71 % 0.0 mm
Puerto Banus, Marbella
Elogios de Weather Underground - 2.25 mb

Guión original por  Jim McMurry - jmcmurry@mwt.net Adaptado para la plantilla por  Wim van der Kuil - Leuven-Template.eu

Usted encontrará nuestra información del tiempo también en:

Weather Underground

Iberian Peninsula Weather Network